Terminal Aerodrome Forecast
Issued by NWS Charleston, WV

Current Version | Previous Version | Graphics & Text | Print | Product List | Glossary On
Versions: 1 2 3 4 5 6 7 8 9 10 11 12 13 14 15 16 17 18 19 20 21 22 23 24 25
000
FTUS41 KRLX 230800 AAA
TAFCRW
TAF AMD
KCRW 230848Z 2309/2406 20004KT 6SM BR SCT070
     FM231300 23007KT 6SM HZ SCT040
     FM231700 24009KT P6SM VCTS BKN040CB
     FM232200 27007KT 5SM TSRA BR BKN030CB
     FM240100 29004KT 4SM TSRA BR BKN028CB
     FM240400 30003KT 3SM -SHRA BR OVC024=

USA.gov is the U.S. government's official web portal to all federal, state and local government web resources and services.